Time;durP1;ratioP1;P1;durP2;ratioP2;P2;SDS_P1;SDS_P2;PMS_P1;PMS_P2;Temp;Humidity;BMP_temperature;BMP_pressure;BME280_temperature;BME280_humidity;BME280_pressure;Samples;Min_cycle;Max_cycle;Signal;HPM_P1;HPM_P2
2022/04/24 00:02:01;;;;;;;95.60;64.00;;;;;;;7.04;59.52;99628.25;110192;1257;22065;-80
2022/04/24 00:04:31;;;;;;;86.10;60.00;;;;;;;7.00;59.73;99629.44;109984;1257;23045;-78
2022/04/24 00:07:00;;;;;;;84.90;57.40;;;;;;;6.98;59.92;99628.09;110042;1258;23035;-79
2022/04/24 00:09:29;;;;;;;73.50;52.90;;;;;;;6.96;59.93;99627.27;110047;1257;23070;-80
2022/04/24 00:11:58;;;;;;;67.30;50.50;;;;;;;6.93;59.77;99626.36;110185;1259;23053;-78
2022/04/24 00:14:28;;;;;;;73.90;50.90;;;;;;;6.90;59.79;99629.65;109947;1258;22034;-78
2022/04/24 00:17:00;;;;;;;69.50;50.90;;;;;;;6.88;59.96;99630.52;110245;1253;21989;-78
2022/04/24 00:19:30;;;;;;;76.60;51.40;;;;;;;6.88;60.13;99630.59;110395;1254;22371;-78
2022/04/24 00:21:59;;;;;;;73.50;51.20;;;;;;;6.90;60.45;99633.81;110538;1254;21963;-78
2022/04/24 00:24:28;;;;;;;103.30;73.60;;;;;;;6.87;60.35;99631.13;110501;1252;23032;-80
2022/04/24 00:26:58;;;;;;;94.90;67.40;;;;;;;6.82;60.65;99626.41;110255;1258;21977;-79
2022/04/24 00:29:28;;;;;;;94.50;67.60;;;;;;;6.81;61.02;99625.48;110104;1258;21950;-79
2022/04/24 00:31:57;;;;;;;91.40;67.90;;;;;;;6.80;61.10;99623.79;109969;1259;22124;-78
2022/04/24 00:34:26;;;;;;;129.90;86.40;;;;;;;6.78;61.16;99621.02;110000;1259;21982;-78
2022/04/24 00:37:00;;;;;;;;;;;;;;;6.76;61.08;99616.27;110276;1256;21950;-79
2022/04/24 00:39:30;;;;;;;165.30;107.70;;;;;;;6.66;61.35;99611.52;110095;1256;23667;-79
2022/04/24 00:41:59;;;;;;;163.90;108.30;;;;;;;6.63;61.74;99621.62;110010;1257;21981;-78
2022/04/24 00:44:32;;;;;;;158.40;106.40;;;;;;;6.65;61.99;99618.57;109613;1257;21969;-78
2022/04/24 00:47:30;;;;;;;138.00;96.30;;;;;;;6.68;62.24;99616.77;110193;1257;22007;-78
2022/04/24 00:50:01;;;;;;;145.70;97.70;;;;;;;6.70;62.30;99611.99;110302;1257;21975;-79
2022/04/24 00:52:33;;;;;;;145.80;98.70;;;;;;;6.71;62.08;99610.64;110258;1259;22991;-79
2022/04/24 00:55:02;;;;;;;;;;;;;;;6.70;62.06;99606.58;109518;1263;21985;-79
2022/04/24 00:57:32;;;;;;;110.90;79.00;;;;;;;6.59;62.01;99606.62;109518;1265;22024;-79
2022/04/24 01:00:04;;;;;;;107.90;78.00;;;;;;;6.52;62.01;99604.56;109156;1267;21986;-78
2022/04/24 01:02:34;;;;;;;;;;;;;;;6.46;62.04;99599.90;109095;1265;23042;-78
2022/04/24 01:05:04;;;;;;;112.30;75.80;;;;;;;6.32;62.14;99597.88;109480;1264;23688;-79
2022/04/24 01:07:33;;;;;;;103.90;74.20;;;;;;;6.24;62.28;99594.33;109347;1265;21975;-79
2022/04/24 01:10:03;;;;;;;106.40;72.60;;;;;;;6.21;62.47;99593.08;109573;1265;22005;-78
2022/04/24 01:12:32;;;;;;;102.80;73.20;;;;;;;6.17;62.41;99588.48;109329;1266;21969;-78
2022/04/24 01:15:02;;;;;;;122.30;87.10;;;;;;;6.13;62.59;99588.79;109539;1264;23159;-78
2022/04/24 01:17:31;;;;;;;124.10;84.00;;;;;;;6.11;62.77;99583.11;109780;1259;22155;-79
2022/04/24 01:20:00;;;;;;;129.10;86.40;;;;;;;6.09;62.79;99583.30;110337;1253;22759;-78
2022/04/24 01:22:30;;;;;;;134.80;86.90;;;;;;;6.07;62.81;99581.02;110653;1253;22124;-78
2022/04/24 01:25:02;;;;;;;128.50;83.80;;;;;;;6.07;62.97;99580.92;110600;1253;21972;-79
2022/04/24 01:27:32;;;;;;;119.60;84.40;;;;;;;6.07;63.10;99582.99;110560;1253;23023;-78
2022/04/24 01:30:04;;;;;;;114.30;80.00;;;;;;;6.06;63.12;99579.72;110494;1253;22401;-79
2022/04/24 01:32:35;;;;;;;113.80;80.70;;;;;;;6.03;63.14;99577.38;110446;1254;21967;-79
2022/04/24 01:35:07;;;;;;;98.50;77.20;;;;;;;5.99;63.25;99576.23;109924;1259;22113;-78
2022/04/24 01:37:36;;;;;;;105.80;76.40;;;;;;;5.96;63.19;99576.97;109290;1264;21975;-79
2022/04/24 01:40:06;;;;;;;106.00;75.30;;;;;;;5.90;63.18;99579.09;109164;1267;23033;-80
2022/04/24 01:42:36;;;;;;;99.00;72.50;;;;;;;5.86;63.30;99583.46;109153;1267;23716;-80
2022/04/24 01:45:06;;;;;;;101.20;73.60;;;;;;;5.83;63.22;99581.02;108991;1273;21999;-79
2022/04/24 01:47:36;;;;;;;103.40;75.80;;;;;;;5.81;63.32;99579.01;108616;1273;22780;-79
2022/04/24 01:50:08;;;;;;;109.70;79.30;;;;;;;5.79;63.44;99577.72;108715;1273;22035;-78
2022/04/24 01:52:38;;;;;;;104.70;77.00;;;;;;;5.78;63.52;99578.70;108952;1269;21999;-79
2022/04/24 01:55:07;;;;;;;105.80;76.40;;;;;;;5.77;63.50;99580.82;108902;1267;21987;-79
2022/04/24 01:57:44;;;;;;;91.00;70.60;;;;;;;5.71;63.46;99578.27;109177;1264;21971;-78
2022/04/24 02:00:14;;;;;;;96.40;69.60;;;;;;;5.64;63.54;99579.30;109422;1264;21972;-78
2022/04/24 02:02:43;;;;;;;96.80;72.50;;;;;;;5.59;63.75;99578.05;109777;1254;21980;-78
2022/04/24 02:05:13;;;;;;;92.50;69.70;;;;;;;5.54;63.95;99574.14;110432;1254;22249;-78
2022/04/24 02:07:43;;;;;;;99.80;72.60;;;;;;;5.50;64.02;99574.57;110511;1254;23684;-78
2022/04/24 02:10:15;;;;;;;94.80;70.20;;;;;;;5.47;64.05;99573.84;110279;1258;21977;-78
2022/04/24 02:12:47;;;;;;;95.30;72.40;;;;;;;5.45;64.05;99568.15;110149;1258;21968;-78
2022/04/24 02:15:17;;;;;;;107.70;85.60;;;;;;;5.42;64.13;99566.59;110013;1258;23805;-78
2022/04/24 02:17:47;;;;;;;91.50;68.40;;;;;;;5.41;64.10;99567.64;110172;1256;22269;-78
2022/04/24 02:20:16;;;;;;;79.90;64.10;;;;;;;5.38;64.11;99569.09;110234;1258;22223;-79
2022/04/24 02:22:46;;;;;;;81.30;61.40;;;;;;;5.38;64.23;99573.17;110044;1257;21963;-78
2022/04/24 02:25:15;;;;;;;78.20;60.90;;;;;;;5.36;64.18;99570.05;110290;1256;23066;-78
2022/04/24 02:27:44;;;;;;;79.50;62.00;;;;;;;5.33;64.20;99569.30;109599;1262;21986;-79
2022/04/24 02:30:13;;;;;;;77.30;62.00;;;;;;;5.30;64.32;99568.77;109558;1260;22321;-78
2022/04/24 02:32:43;;;;;;;80.60;61.10;;;;;;;5.27;64.43;99568.33;109753;1262;22007;-78
2022/04/24 02:35:12;;;;;;;82.30;64.00;;;;;;;5.25;64.39;99567.16;110005;1260;21987;-78
2022/04/24 02:37:42;;;;;;;84.00;64.10;;;;;;;5.21;64.47;99563.34;109923;1260;21972;-78
2022/04/24 02:40:11;;;;;;;82.70;64.20;;;;;;;5.14;64.49;99560.48;109612;1261;21982;-78
2022/04/24 02:42:41;;;;;;;85.00;65.80;;;;;;;5.08;64.56;99561.64;109800;1261;22854;-78
2022/04/24 02:45:10;;;;;;;85.60;66.60;;;;;;;5.02;64.73;99559.29;109628;1255;21967;-79
2022/04/24 02:47:39;;;;;;;88.50;66.60;;;;;;;4.98;64.89;99557.46;110332;1254;21986;-79
2022/04/24 02:50:09;;;;;;;90.30;71.90;;;;;;;4.93;65.04;99557.16;110412;1254;21958;-80
2022/04/24 02:52:52;;;;;;;82.00;61.90;;;;;;;4.90;65.06;99552.81;110399;1253;23625;-79
2022/04/24 02:55:23;;;;;;;79.40;62.60;;;;;;;4.87;65.04;99552.42;110442;1252;21982;-79
2022/04/24 02:57:53;;;;;;;81.30;64.50;;;;;;;4.85;65.10;99552.11;110407;1252;23827;-80
2022/04/24 03:00:24;;;;;;;84.70;64.00;;;;;;;4.84;65.37;99550.80;110769;1255;21953;-80
2022/04/24 03:02:54;;;;;;;84.60;61.00;;;;;;;4.83;65.46;99549.10;110474;1255;22036;-79
2022/04/24 03:05:24;;;;;;;81.10;63.80;;;;;;;4.82;65.40;99546.65;110314;1256;22011;-79
2022/04/24 03:07:54;;;;;;;85.00;64.90;;;;;;;4.81;65.44;99542.36;110477;1255;23508;-79
2022/04/24 03:10:23;;;;;;;77.70;60.30;;;;;;;4.80;65.51;99542.29;110504;1254;21978;-80
2022/04/24 03:12:52;;;;;;;77.70;57.80;;;;;;;4.79;65.57;99542.05;109723;1261;23713;-78
2022/04/24 03:15:23;;;;;;;73.50;56.40;;;;;;;4.77;65.63;99535.72;109952;1259;23611;-79
2022/04/24 03:17:54;;;;;;;74.80;57.50;;;;;;;4.75;65.40;99530.94;109677;1261;23039;-79
2022/04/24 03:20:24;;;;;;;77.60;60.30;;;;;;;4.70;65.48;99528.88;110021;1260;23752;-79
2022/04/24 03:22:56;;;;;;;72.70;60.00;;;;;;;4.66;65.51;99523.02;110158;1260;21981;-80
2022/04/24 03:25:25;;;;;;;;;;;;;;;4.60;65.59;99521.31;109706;1261;21970;-79
2022/04/24 03:27:54;;;;;;;76.10;60.00;;;;;;;4.46;65.79;99514.16;109261;1263;21978;-79
2022/04/24 03:30:26;;;;;;;81.90;63.30;;;;;;;4.39;66.02;99511.05;109199;1263;23056;-79
2022/04/24 03:32:55;;;;;;;79.50;63.10;;;;;;;4.37;66.17;99509.99;109793;1262;23741;-80
2022/04/24 03:35:25;;;;;;;79.20;59.50;;;;;;;4.36;66.18;99508.14;109200;1265;22127;-79
2022/04/24 03:37:54;;;;;;;73.20;58.60;;;;;;;4.37;66.36;99507.34;108903;1267;22906;-78
2022/04/24 03:40:23;;;;;;;64.60;55.30;;;;;;;4.40;66.55;99507.45;109117;1268;22363;-77
2022/04/24 03:42:52;;;;;;;66.90;55.30;;;;;;;4.42;66.58;99501.63;109174;1268;22216;-78
2022/04/24 03:45:22;;;;;;;61.40;48.50;;;;;;;4.45;66.68;99498.89;108532;1270;22004;-78
2022/04/24 03:47:52;;;;;;;46.40;38.30;;;;;;;4.50;66.78;99491.34;108878;1270;23696;-77
2022/04/24 03:50:21;;;;;;;42.20;34.80;;;;;;;4.56;67.15;99490.71;109069;1267;22638;-78
2022/04/24 03:52:50;;;;;;;40.00;33.40;;;;;;;4.65;67.39;99494.03;108724;1270;21991;-79
2022/04/24 03:55:19;;;;;;;38.30;31.10;;;;;;;4.75;67.59;99493.09;108679;1267;23683;-79
2022/04/24 03:57:48;;;;;;;35.60;29.50;;;;;;;4.86;67.78;99498.87;109057;1267;23563;-79
2022/04/24 04:00:18;;;;;;;38.20;28.70;;;;;;;4.99;67.85;99499.75;108718;1273;22445;-80
2022/04/24 04:02:52;;;;;;;45.70;31.20;;;;;;;5.12;67.76;99499.33;108534;1270;23098;-78
2022/04/24 04:05:22;;;;;;;41.90;31.50;;;;;;;5.24;67.81;99498.09;109106;1268;21987;-78
2022/04/24 04:07:51;;;;;;;45.60;33.80;;;;;;;5.38;67.70;99501.58;108924;1267;21977;-78
2022/04/24 04:10:22;;;;;;;45.60;34.30;;;;;;;5.54;67.70;99504.67;108749;1267;22081;-78
2022/04/24 04:12:51;;;;;;;41.50;35.00;;;;;;;5.72;67.61;99505.80;109169;1263;23789;-78
2022/04/24 04:15:20;;;;;;;45.50;35.30;;;;;;;5.89;67.32;99509.81;109608;1262;21989;-79
2022/04/24 04:17:50;;;;;;;45.00;33.30;;;;;;;6.05;67.17;99504.52;109709;1259;24319;-79
2022/04/24 04:20:19;;;;;;;48.00;37.20;;;;;;;6.21;66.99;99501.94;110365;1258;22258;-79
2022/04/24 04:22:51;;;;;;;44.40;36.20;;;;;;;6.35;66.60;99503.61;110074;1256;21982;-79
2022/04/24 04:25:26;;;;;;;50.80;39.20;;;;;;;6.47;66.03;99501.20;110070;1259;21982;-79
2022/04/24 04:28:01;;;;;;;54.00;41.80;;;;;;;6.56;65.74;99496.38;110302;1254;21970;-79
2022/04/24 04:30:33;;;;;;;46.50;39.50;;;;;;;6.67;65.37;99497.16;110502;1254;22274;-80
2022/04/24 04:33:05;;;;;;;42.70;36.30;;;;;;;6.77;65.02;99500.84;110828;1253;23577;-80
2022/04/24 04:35:35;;;;;;;47.30;39.60;;;;;;;6.87;64.63;99500.25;110990;1253;22348;-80
2022/04/24 04:38:05;;;;;;;46.40;36.80;;;;;;;6.97;64.25;99496.36;110449;1257;23585;-80
2022/04/24 04:40:34;;;;;;;41.50;32.80;;;;;;;7.08;63.86;99500.39;110514;1257;23042;-78
2022/04/24 04:43:03;;;;;;;41.00;33.10;;;;;;;7.22;63.79;99503.50;110482;1257;21969;-78
2022/04/24 04:45:34;;;;;;;50.20;34.80;;;;;;;7.41;63.76;99505.59;110100;1256;23076;-78
2022/04/24 04:48:07;;;;;;;44.30;35.30;;;;;;;7.59;63.31;99501.33;110376;1257;21980;-81
2022/04/24 04:50:36;;;;;;;42.40;35.60;;;;;;;7.74;62.81;99495.86;110259;1257;22607;-77
2022/04/24 04:53:05;;;;;;;47.00;36.50;;;;;;;7.91;62.64;99496.23;109976;1260;22714;-78
2022/04/24 04:55:34;;;;;;;43.70;36.30;;;;;;;8.10;62.21;99498.06;110156;1260;21988;-79
2022/04/24 04:58:13;;;;;;;38.70;32.40;;;;;;;8.28;61.57;99501.06;110334;1257;24281;-78
2022/04/24 05:00:44;;;;;;;44.90;35.30;;;;;;;8.45;61.06;99503.63;110367;1257;21993;-78
2022/04/24 05:03:14;;;;;;;39.90;34.40;;;;;;;8.62;60.78;99506.23;110368;1258;22695;-79
2022/04/24 05:05:43;;;;;;;45.10;34.20;;;;;;;8.88;60.98;99506.58;110051;1258;23057;-79
2022/04/24 05:08:12;;;;;;;50.50;36.60;;;;;;;9.31;61.60;99502.96;110161;1258;22481;-77
2022/04/24 05:10:44;;;;;;;34.10;28.40;;;;;;;9.79;61.07;99503.62;110312;1254;22245;-78
2022/04/24 05:13:13;;;;;;;31.50;24.00;;;;;;;10.22;59.75;99502.52;110667;1253;24286;-78
2022/04/24 05:15:44;;;;;;;24.90;20.90;;;;;;;10.61;58.65;99503.11;110507;1254;22012;-80
2022/04/24 05:18:13;;;;;;;24.40;19.60;;;;;;;10.96;57.29;99503.23;110096;1259;22306;-79
2022/04/24 05:20:43;;;;;;;26.70;19.90;;;;;;;11.27;56.14;99506.25;110266;1258;22028;-79
2022/04/24 05:23:14;;;;;;;23.50;19.20;;;;;;;11.55;54.86;99505.66;110408;1257;21973;-79
2022/04/24 05:25:43;;;;;;;25.00;17.20;;;;;;;11.77;54.06;99510.27;110398;1257;21970;-79
2022/04/24 05:28:15;;;;;;;23.80;18.70;;;;;;;11.98;53.26;99511.44;110379;1260;21998;-79
2022/04/24 05:30:52;;;;;;;23.40;18.80;;;;;;;12.21;52.45;99509.54;110386;1258;23082;-79
2022/04/24 05:33:21;;;;;;;24.60;18.80;;;;;;;12.48;52.51;99516.38;110035;1257;22052;-80
2022/04/24 05:35:51;;;;;;;25.70;19.60;;;;;;;12.79;52.15;99521.64;110280;1253;23595;-79
2022/04/24 05:38:22;;;;;;;19.50;17.10;;;;;;;13.09;50.92;99523.87;110771;1252;21961;-79
2022/04/24 05:40:52;;;;;;;23.10;18.30;;;;;;;13.07;48.95;99534.39;110555;1254;21960;-79
2022/04/24 05:43:22;;;;;;;24.30;19.40;;;;;;;13.11;49.65;99539.41;110017;1260;21984;-81
2022/04/24 05:45:51;;;;;;;25.30;20.70;;;;;;;13.39;49.97;99536.02;109445;1263;23046;-79
2022/04/24 05:48:22;;;;;;;29.70;21.30;;;;;;;13.77;49.98;99542.58;109295;1265;21976;-82
2022/04/24 05:50:51;;;;;;;28.70;20.90;;;;;;;14.14;49.05;99546.52;109353;1267;22728;-80
2022/04/24 05:53:23;;;;;;;25.00;17.90;;;;;;;14.39;47.75;99553.67;109439;1265;23702;-79
2022/04/24 05:55:52;;;;;;;21.00;17.10;;;;;;;14.48;46.39;99553.84;109286;1265;22021;-79
2022/04/24 05:58:23;;;;;;;21.70;17.50;;;;;;;14.51;46.21;99551.39;109254;1266;22032;-80
2022/04/24 06:00:56;;;;;;;22.60;18.30;;;;;;;14.53;45.79;99547.98;109602;1264;21984;-80
2022/04/24 06:03:25;;;;;;;18.10;16.10;;;;;;;14.71;46.49;99543.91;109806;1264;23628;-80
2022/04/24 06:05:54;;;;;;;19.60;16.80;;;;;;;15.04;46.04;99546.06;109383;1260;22452;-79
2022/04/24 06:08:25;;;;;;;22.00;17.80;;;;;;;15.27;44.92;99544.08;109571;1264;22888;-79
2022/04/24 06:10:55;;;;;;;23.80;18.70;;;;;;;15.44;44.78;99537.21;109795;1258;22152;-79
2022/04/24 06:13:24;;;;;;;23.40;17.70;;;;;;;15.56;44.10;99534.59;110344;1258;22162;-81
2022/04/24 06:15:57;;;;;;;22.30;19.00;;;;;;;15.63;43.90;99535.55;110043;1259;22738;-80
2022/04/24 06:18:28;;;;;;;74.20;55.70;;;;;;;15.77;43.99;99536.13;110045;1257;23921;-79
2022/04/24 06:20:57;;;;;;;26.70;20.70;;;;;;;15.94;43.44;99533.81;110053;1257;22654;-80
2022/04/24 06:23:31;;;;;;;17.70;15.70;;;;;;;16.06;43.10;99528.41;109671;1263;23062;-79
2022/04/24 06:26:01;;;;;;;19.80;17.10;;;;;;;16.23;42.90;99522.96;109555;1257;23607;-79
2022/04/24 06:28:30;;;;;;;18.60;13.70;;;;;;;16.28;41.72;99519.83;109539;1264;22071;-79
2022/04/24 06:30:59;;;;;;;15.70;13.30;;;;;;;16.07;41.39;99517.02;109498;1264;21980;-80
2022/04/24 06:33:28;;;;;;;15.50;12.60;;;;;;;15.95;42.14;99517.23;109274;1265;21982;-77
2022/04/24 06:36:01;;;;;;;17.10;12.70;;;;;;;16.13;42.86;99519.98;109311;1264;23701;-77
2022/04/24 06:38:30;;;;;;;43.00;27.90;;;;;;;16.27;42.11;99520.94;109232;1264;23058;-77
2022/04/24 06:40:59;;;;;;;18.90;14.60;;;;;;;16.31;41.71;99517.74;109542;1264;23059;-78
2022/04/24 06:43:29;;;;;;;15.60;11.40;;;;;;;16.28;41.22;99510.23;109308;1265;23418;-78
2022/04/24 06:45:58;;;;;;;13.60;11.80;;;;;;;16.21;41.40;99510.48;109314;1260;22012;-76
2022/04/24 06:48:27;;;;;;;14.60;9.80;;;;;;;16.14;41.24;99503.32;110248;1251;217423;-76
2022/04/24 06:51:03;;;;;;;13.20;10.10;;;;;;;16.15;42.18;99498.51;110857;1251;22030;-79
2022/04/24 06:53:35;;;;;;;11.10;9.90;;;;;;;16.42;42.32;99497.73;110618;1257;21970;-82
2022/04/24 06:56:08;;;;;;;11.10;9.80;;;;;;;16.56;41.40;99492.20;110636;1257;21968;-77
2022/04/24 06:58:38;;;;;;;11.20;9.20;;;;;;;16.66;41.10;99489.43;109651;1261;23594;-78
2022/04/24 07:01:15;;;;;;;16.60;10.80;;;;;;;16.70;40.91;99484.14;109760;1261;23667;-78
2022/04/24 07:03:44;;;;;;;11.10;8.70;;;;;;;16.90;41.61;99482.36;109305;1267;21963;-79
2022/04/24 07:06:16;;;;;;;8.80;7.90;;;;;;;17.14;40.90;99476.09;109350;1267;22723;-78
2022/04/24 07:08:46;;;;;;;9.80;7.30;;;;;;;17.32;40.29;99476.39;109164;1267;22274;-78
2022/04/24 07:11:17;;;;;;;10.90;8.00;;;;;;;17.45;39.60;99471.23;109257;1265;23698;-79
2022/04/24 07:13:46;;;;;;;10.10;6.30;;;;;;;17.55;39.42;99470.11;109515;1264;22562;-79
2022/04/24 07:16:16;;;;;;;11.60;7.20;;;;;;;17.74;39.59;99468.16;109652;1258;22376;-80
2022/04/24 07:18:46;;;;;;;17.10;15.40;;;;;;;17.93;39.06;99468.90;110038;1258;22988;-82
2022/04/24 07:21:16;;;;;;;10.70;7.80;;;;;;;18.05;38.53;99465.27;110077;1253;23591;-79
2022/04/24 07:23:45;;;;;;;8.90;7.80;;;;;;;18.09;38.00;99459.20;110988;1251;21972;-79
2022/04/24 07:26:14;;;;;;;9.40;7.80;;;;;;;18.13;38.18;99455.50;110577;1254;21967;-79
2022/04/24 07:28:43;;;;;;;8.70;7.70;;;;;;;18.17;37.77;99448.29;110625;1251;23562;-80
2022/04/24 07:31:14;;;;;;;10.70;8.00;;;;;;;18.27;38.39;99441.24;110664;1253;21988;-78
2022/04/24 07:33:45;;;;;;;8.00;6.90;;;;;;;18.56;38.13;99439.66;110653;1253;23050;-79
2022/04/24 07:36:15;;;;;;;11.70;7.00;;;;;;;18.78;37.83;99438.33;110986;1251;22107;-79
2022/04/24 07:38:46;;;;;;;8.40;6.20;;;;;;;19.12;37.41;99436.11;110544;1251;23041;-78
2022/04/24 07:41:15;;;;;;;12.30;6.60;;;;;;;19.38;37.09;99431.64;110809;1254;22270;-79
2022/04/24 07:43:48;;;;;;;8.30;5.80;;;;;;;19.60;36.31;99429.05;110992;1251;23072;-79
2022/04/24 07:46:18;;;;;;;8.70;6.60;;;;;;;19.76;36.05;99428.02;110516;1257;22048;-78
2022/04/24 07:48:50;;;;;;;7.20;6.10;;;;;;;19.95;35.81;99433.48;109333;1266;22924;-80
2022/04/24 07:51:19;;;;;;;8.60;6.40;;;;;;;19.99;34.88;99434.50;109342;1264;22046;-78
2022/04/24 07:53:48;;;;;;;6.80;6.00;;;;;;;19.96;34.92;99431.52;109182;1266;21982;-80
2022/04/24 07:56:17;;;;;;;9.50;7.30;;;;;;;19.95;34.76;99427.48;109366;1267;22437;-81
2022/04/24 07:58:46;;;;;;;12.40;6.60;;;;;;;19.95;34.65;99432.80;109368;1266;22016;-81
2022/04/24 08:01:17;;;;;;;6.00;5.40;;;;;;;19.78;34.34;99431.05;109547;1266;22003;-79
2022/04/24 08:03:47;;;;;;;8.10;6.10;;;;;;;19.60;34.39;99432.64;109512;1263;23747;-79
2022/04/24 08:06:17;;;;;;;7.30;5.40;;;;;;;19.40;34.55;99430.44;109499;1260;21993;-79
2022/04/24 08:08:58;;;;;;;;;;;;;;;19.26;34.94;99423.23;110153;1259;21959;-78
2022/04/24 08:11:29;;;;;;;8.60;5.50;;;;;;;19.29;35.47;99424.31;110282;1254;21990;-78
2022/04/24 08:13:58;;;;;;;11.70;5.90;;;;;;;19.38;35.02;99424.15;110569;1254;21973;-79
2022/04/24 08:16:27;;;;;;;7.40;5.80;;;;;;;19.37;34.97;99417.11;110869;1253;21967;-78
2022/04/24 08:19:01;;;;;;;7.60;6.10;;;;;;;19.46;35.39;99411.08;110736;1252;23701;-78
2022/04/24 08:21:30;;;;;;;6.00;5.20;;;;;;;19.66;35.07;99411.83;110562;1252;23109;-79
2022/04/24 08:23:59;;;;;;;6.00;4.80;;;;;;;19.77;34.46;99414.25;110455;1254;22011;-78
2022/04/24 08:26:30;;;;;;;6.60;5.30;;;;;;;19.75;34.25;99406.32;110499;1251;21961;-80
2022/04/24 08:28:59;;;;;;;4.70;4.20;;;;;;;19.80;34.09;99402.39;109775;1257;21967;-78
2022/04/24 08:31:31;;;;;;;5.80;5.00;;;;;;;19.86;34.01;99404.87;109244;1267;21978;-78
2022/04/24 08:34:01;;;;;;;7.40;4.80;;;;;;;20.02;34.32;99407.45;109423;1265;21979;-78
2022/04/24 08:36:30;;;;;;;6.40;4.80;;;;;;;20.21;33.76;99409.52;109257;1267;21971;-79
2022/04/24 08:39:00;;;;;;;6.30;4.80;;;;;;;20.28;33.42;99406.73;109414;1266;22855;-78
2022/04/24 08:41:34;;;;;;;4.50;3.80;;;;;;;20.37;33.36;99408.21;109189;1267;21975;-78
2022/04/24 08:44:07;;;;;;;4.90;4.10;;;;;;;20.26;32.17;99416.80;109250;1267;22323;-78
2022/04/24 08:46:47;;;;;;;6.00;4.20;;;;;;;20.06;32.60;99416.08;109458;1263;22326;-79
2022/04/24 08:49:19;;;;;;;4.70;4.10;;;;;;;20.10;33.06;99415.59;109741;1258;23042;-80
2022/04/24 08:51:49;;;;;;;4.80;3.50;;;;;;;20.16;33.07;99417.18;110409;1257;22469;-78
2022/04/24 08:54:20;;;;;;;7.10;4.00;;;;;;;20.05;32.57;99416.48;110394;1253;21959;-79
2022/04/24 08:56:50;;;;;;;8.80;5.90;;;;;;;19.78;32.72;99413.15;110635;1251;23766;-79
2022/04/24 08:59:21;;;;;;;7.80;3.20;;;;;;;19.69;33.75;99407.84;110903;1251;22063;-79
2022/04/24 09:01:51;;;;;;;5.40;3.60;;;;;;;19.91;33.77;99416.09;110571;1254;23742;-78
2022/04/24 09:04:21;;;;;;;6.60;4.90;;;;;;;20.14;33.48;99423.08;110701;1251;22255;-79
2022/04/24 09:06:55;;;;;;;4.20;3.30;;;;;;;20.27;32.68;99427.98;110648;1253;22006;-78
2022/04/24 09:09:27;;;;;;;4.50;3.40;;;;;;;20.08;32.30;99423.39;110735;1253;21955;-80
2022/04/24 09:12:11;;;;;;;4.30;3.00;;;;;;;19.96;32.63;99422.14;110657;1253;22427;-78
2022/04/24 09:14:50;;;;;;;4.20;3.30;;;;;;;19.80;32.37;99418.37;110890;1253;23591;-78
2022/04/24 09:17:30;;;;;;;4.30;3.30;;;;;;;19.81;32.76;99421.48;110069;1260;21972;-78
2022/04/24 09:20:17;;;;;;;5.20;3.40;;;;;;;19.92;32.84;99424.56;110390;1260;21981;-79
2022/04/24 09:22:47;;;;;;;5.70;4.10;;;;;;;19.96;32.63;99418.23;110292;1260;21975;-77
2022/04/24 09:25:17;;;;;;;6.30;3.90;;;;;;;20.10;33.09;99418.96;109828;1263;23045;-78
2022/04/24 09:27:54;;;;;;;4.80;3.60;;;;;;;20.33;32.75;99420.57;109291;1268;21995;-78
2022/04/24 09:30:27;;;;;;;4.70;4.00;;;;;;;20.42;32.26;99412.11;109170;1267;23616;-78
2022/04/24 09:32:56;;;;;;;4.20;3.80;;;;;;;20.47;31.70;99416.24;109286;1266;22044;-79
2022/04/24 09:35:33;;;;;;;4.20;2.90;;;;;;;20.35;31.65;99413.07;109574;1261;22067;-78
2022/04/24 09:38:17;;;;;;;3.60;3.10;;;;;;;20.23;31.73;99410.55;110114;1260;23064;-78
2022/04/24 09:40:48;;;;;;;4.00;3.50;;;;;;;20.07;31.73;99407.46;109662;1261;23644;-78
2022/04/24 09:43:19;;;;;;;5.70;3.50;;;;;;;20.00;32.16;99406.36;110333;1254;22213;-78
2022/04/24 09:45:55;;;;;;;4.00;3.40;;;;;;;19.99;31.79;99410.59;110748;1252;24720;-77
2022/04/24 09:48:26;;;;;;;3.70;3.20;;;;;;;19.99;31.76;99415.42;110528;1254;22263;-77
2022/04/24 09:50:58;;;;;;;3.60;3.10;;;;;;;20.13;32.28;99418.62;110530;1251;22108;-79
2022/04/24 09:53:29;;;;;;;5.00;3.80;;;;;;;20.36;31.84;99420.16;110681;1251;22032;-77
2022/04/24 09:56:04;;;;;;;7.10;3.40;;;;;;;20.48;31.17;99414.48;110434;1254;23065;-78
2022/04/24 09:58:36;;;;;;;6.30;4.80;;;;;;;20.52;31.41;99409.55;110395;1257;23000;-78
2022/04/24 10:01:08;;;;;;;3.70;3.10;;;;;;;20.61;31.17;99415.64;109840;1263;23001;-77
2022/04/24 10:03:39;;;;;;;4.10;3.30;;;;;;;20.44;30.74;99414.02;109729;1261;21960;-78
2022/04/24 10:06:10;;;;;;;5.30;3.00;;;;;;;20.24;30.97;99417.58;109652;1260;22672;-78
2022/04/24 10:08:54;;;;;;;4.20;2.80;;;;;;;20.01;30.95;99410.13;109253;1267;23069;-79
2022/04/24 10:11:24;;;;;;;3.30;2.70;;;;;;;19.79;31.31;99407.05;109266;1267;23754;-79
2022/04/24 10:14:03;;;;;;;3.10;2.80;;;;;;;19.74;30.95;99403.88;109000;1263;23589;-77
2022/04/24 10:17:26;;;;;;;3.40;3.10;;;;;;;19.68;31.03;99386.52;109331;1264;23292;-78
2022/04/24 10:20:22;;;;;;;;;;;;;;;19.77;31.11;99379.42;109241;1266;23400;-78
2022/04/24 10:22:54;;;;;;;3.50;2.80;;;;;;;19.73;31.22;99386.20;108932;1270;23733;-78
2022/04/24 10:25:38;;;;;;;3.40;3.00;;;;;;;19.67;31.07;99383.65;108790;1273;22018;-80
2022/04/24 10:28:18;;;;;;;3.30;3.00;;;;;;;19.66;31.39;99370.03;108738;1271;23087;-80
2022/04/24 10:31:02;;;;;;;4.00;3.50;;;;;;;19.80;31.13;99355.76;108585;1273;22719;-77
2022/04/24 10:33:33;;;;;;;4.80;3.30;;;;;;;19.84;30.98;99350.60;108892;1270;24320;-77
2022/04/24 10:36:10;;;;;;;3.60;2.90;;;;;;;19.77;30.95;99349.52;108809;1271;22024;-79
2022/04/24 10:38:50;;;;;;;3.70;3.40;;;;;;;19.67;31.27;99341.05;108880;1270;23764;-78
2022/04/24 10:41:40;;;;;;;4.80;3.40;;;;;;;19.51;31.63;99338.98;108469;1276;24562;-78
2022/04/24 10:44:17;;;;;;;4.80;3.80;;;;;;;19.37;31.82;99335.98;108478;1276;22009;-80
2022/04/24 10:46:48;;;;;;;8.50;4.10;;;;;;;19.29;32.15;99327.09;108559;1274;22395;-80
2022/04/24 10:49:18;;;;;;;4.70;3.10;;;;;;;19.12;32.02;99321.48;108849;1273;23721;-78
2022/04/24 10:52:00;;;;;;;4.30;3.00;;;;;;;18.82;32.44;99323.75;108720;1273;22225;-78
2022/04/24 10:54:35;;;;;;;3.80;3.40;;;;;;;18.70;33.33;99323.02;108742;1273;22445;-78
2022/04/24 10:57:17;;;;;;;4.40;3.40;;;;;;;18.68;33.46;99323.33;108966;1267;22762;-78
2022/04/24 10:59:55;;;;;;;3.60;3.00;;;;;;;18.59;33.69;99318.28;109563;1254;22029;-78
2022/04/24 11:02:33;;;;;;;6.40;3.20;;;;;;;18.52;34.01;99317.64;110579;1254;21977;-79
2022/04/24 11:05:06;;;;;;;3.70;2.90;;;;;;;18.49;34.12;99319.58;110606;1254;23577;-78
2022/04/24 11:07:38;;;;;;;7.70;4.20;;;;;;;18.34;34.06;99314.08;110530;1253;24196;-78
2022/04/24 11:10:10;;;;;;;;;;;;;;;18.23;34.10;99308.92;110466;1254;23843;-78
2022/04/24 11:12:43;;;;;;;4.40;3.20;;;;;;;18.06;34.14;99307.02;110200;1260;23717;-79
2022/04/24 11:15:14;;;;;;;4.80;3.00;;;;;;;17.96;34.21;99303.39;110155;1260;22094;-78
2022/04/24 11:17:45;;;;;;;6.00;2.90;;;;;;;17.87;34.50;99303.71;109985;1260;23053;-78
2022/04/24 11:20:19;;;;;;;3.30;2.90;;;;;;;17.85;34.67;99299.09;109705;1260;23678;-78
2022/04/24 11:22:54;;;;;;;3.30;3.00;;;;;;;17.75;34.63;99296.33;110022;1260;22337;-78
2022/04/24 11:25:27;;;;;;;3.60;2.70;;;;;;;17.62;34.85;99291.34;110029;1260;22333;-78
2022/04/24 11:27:59;;;;;;;4.10;3.00;;;;;;;17.56;35.06;99286.58;109783;1257;21990;-76
2022/04/24 11:30:33;;;;;;;3.70;3.00;;;;;;;17.50;35.24;99285.23;110108;1253;22026;-78
2022/04/24 11:33:06;;;;;;;3.90;2.90;;;;;;;17.42;35.26;99281.18;110569;1251;23702;-79
2022/04/24 11:35:40;;;;;;;3.10;2.60;;;;;;;17.38;35.64;99273.38;110541;1251;22194;-78
2022/04/24 11:38:13;;;;;;;5.60;2.90;;;;;;;17.44;35.68;99277.70;110723;1251;21954;-78
2022/04/24 11:40:49;;;;;;;3.50;2.80;;;;;;;17.49;35.75;99274.92;110569;1251;21960;-78